KMQS

Chester County G O Carlson Airport

Coatesville, Pennsylvania, USA
METAR KMQS 191955Z AUTO 18006KT 10SM CLR 14/06 A3012 RMK AO2
Observed Flight Rules
Oct-19 @ 19:55 UTC (33 minutes ago) Visual Flight Rules
Wind Visibility Clouds
180° at 6 knots 10 miles
  • Clear skies
Temperatures Readings
Current 14°C / 57°F
Dewpoint 6°C / 43°F
Humidity 59%
Altimeter 30.12" Hg
Pressure 1020 hPa
Elevation 201
METAR KMQS 191955Z AUTO 18006KT 10SM CLR 14/06 A3012 RMK AO2
Observed Flight Rules
Oct-19 @ 19:55 UTC
(33 minutes ago)
VFR
Wind Visibility
180° at 6 knots 10 miles
Clouds
  • Clear skies
Temperature Dewpoint
14°C / 57°F 6°C / 43°F
Humidity Altimeter Pressure
59% 30.12" Hg 1020 hPa